sensor_id;sensor_type;location;lat;lon;timestamp;P1;durP1;ratioP1;P2;durP2;ratioP2
22357;SDS011;11346;50.150;8.150;2023-04-25T00:00:07;6.83;;;5.30;;
22357;SDS011;11346;50.150;8.150;2023-04-25T00:02:35;7.37;;;5.70;;
22357;SDS011;11346;50.150;8.150;2023-04-25T00:05:02;8.67;;;5.13;;
22357;SDS011;11346;50.150;8.150;2023-04-25T00:07:29;7.17;;;5.80;;
22357;SDS011;11346;50.150;8.150;2023-04-25T00:09:57;7.93;;;5.83;;
22357;SDS011;11346;50.150;8.150;2023-04-25T00:12:25;6.70;;;5.40;;
22357;SDS011;11346;50.150;8.150;2023-04-25T00:14:53;7.93;;;5.63;;
22357;SDS011;11346;50.150;8.150;2023-04-25T00:17:21;9.17;;;6.20;;
22357;SDS011;11346;50.150;8.150;2023-04-25T00:19:49;6.37;;;5.47;;
22357;SDS011;11346;50.150;8.150;2023-04-25T00:22:17;6.43;;;5.73;;
22357;SDS011;11346;50.150;8.150;2023-04-25T00:24:44;8.53;;;5.63;;
22357;SDS011;11346;50.150;8.150;2023-04-25T00:27:11;9.20;;;5.80;;
22357;SDS011;11346;50.150;8.150;2023-04-25T00:29:40;7.17;;;5.80;;
22357;SDS011;11346;50.150;8.150;2023-04-25T00:32:07;8.97;;;5.80;;
22357;SDS011;11346;50.150;8.150;2023-04-25T00:34:34;8.57;;;5.60;;
22357;SDS011;11346;50.150;8.150;2023-04-25T00:37:01;7.70;;;5.67;;
22357;SDS011;11346;50.150;8.150;2023-04-25T00:39:28;6.70;;;5.60;;
22357;SDS011;11346;50.150;8.150;2023-04-25T00:41:55;7.23;;;5.23;;
22357;SDS011;11346;50.150;8.150;2023-04-25T00:44:22;7.23;;;6.13;;
22357;SDS011;11346;50.150;8.150;2023-04-25T00:46:53;6.37;;;5.73;;
22357;SDS011;11346;50.150;8.150;2023-04-25T00:49:20;6.70;;;5.30;;
22357;SDS011;11346;50.150;8.150;2023-04-25T00:51:47;8.70;;;5.70;;
22357;SDS011;11346;50.150;8.150;2023-04-25T00:54:15;7.43;;;5.53;;
22357;SDS011;11346;50.150;8.150;2023-04-25T00:56:42;7.23;;;5.40;;
22357;SDS011;11346;50.150;8.150;2023-04-25T00:59:10;8.53;;;6.13;;
22357;SDS011;11346;50.150;8.150;2023-04-25T01:01:38;8.87;;;5.93;;
22357;SDS011;11346;50.150;8.150;2023-04-25T01:04:07;7.80;;;6.17;;
22357;SDS011;11346;50.150;8.150;2023-04-25T01:06:34;9.50;;;6.03;;
22357;SDS011;11346;50.150;8.150;2023-04-25T01:09:01;10.70;;;6.00;;
22357;SDS011;11346;50.150;8.150;2023-04-25T01:11:28;11.07;;;7.17;;
22357;SDS011;11346;50.150;8.150;2023-04-25T01:13:55;9.13;;;6.57;;
22357;SDS011;11346;50.150;8.150;2023-04-25T01:16:23;10.03;;;7.40;;
22357;SDS011;11346;50.150;8.150;2023-04-25T01:18:50;10.83;;;6.93;;
22357;SDS011;11346;50.150;8.150;2023-04-25T01:21:18;10.27;;;7.03;;
22357;SDS011;11346;50.150;8.150;2023-04-25T01:23:45;9.90;;;7.13;;
22357;SDS011;11346;50.150;8.150;2023-04-25T01:26:13;10.30;;;6.70;;
22357;SDS011;11346;50.150;8.150;2023-04-25T01:28:40;8.87;;;7.07;;
22357;SDS011;11346;50.150;8.150;2023-04-25T01:31:07;10.77;;;7.00;;
22357;SDS011;11346;50.150;8.150;2023-04-25T01:33:34;13.87;;;7.93;;
22357;SDS011;11346;50.150;8.150;2023-04-25T01:36:01;13.33;;;7.93;;
22357;SDS011;11346;50.150;8.150;2023-04-25T01:38:30;13.17;;;7.50;;
22357;SDS011;11346;50.150;8.150;2023-04-25T01:40:57;11.57;;;7.30;;
22357;SDS011;11346;50.150;8.150;2023-04-25T01:43:24;13.90;;;7.60;;
22357;SDS011;11346;50.150;8.150;2023-04-25T01:45:52;12.53;;;7.03;;
22357;SDS011;11346;50.150;8.150;2023-04-25T01:48:19;11.50;;;7.17;;
22357;SDS011;11346;50.150;8.150;2023-04-25T01:50:46;9.53;;;7.20;;
22357;SDS011;11346;50.150;8.150;2023-04-25T01:53:13;11.03;;;7.23;;
22357;SDS011;11346;50.150;8.150;2023-04-25T01:55:42;12.57;;;7.00;;
22357;SDS011;11346;50.150;8.150;2023-04-25T01:58:09;12.93;;;6.90;;
22357;SDS011;11346;50.150;8.150;2023-04-25T02:00:37;12.30;;;7.03;;
22357;SDS011;11346;50.150;8.150;2023-04-25T02:03:06;12.70;;;7.17;;
22357;SDS011;11346;50.150;8.150;2023-04-25T02:05:35;15.47;;;7.73;;
22357;SDS011;11346;50.150;8.150;2023-04-25T02:08:04;11.90;;;7.60;;
22357;SDS011;11346;50.150;8.150;2023-04-25T02:10:32;13.53;;;8.20;;
22357;SDS011;11346;50.150;8.150;2023-04-25T02:13:00;11.27;;;7.83;;
22357;SDS011;11346;50.150;8.150;2023-04-25T02:15:27;17.13;;;8.43;;
22357;SDS011;11346;50.150;8.150;2023-04-25T02:17:54;14.60;;;8.37;;
22357;SDS011;11346;50.150;8.150;2023-04-25T02:20:22;13.83;;;8.23;;
22357;SDS011;11346;50.150;8.150;2023-04-25T02:22:49;15.47;;;8.77;;
22357;SDS011;11346;50.150;8.150;2023-04-25T02:25:16;15.70;;;8.70;;
22357;SDS011;11346;50.150;8.150;2023-04-25T02:27:44;10.73;;;8.33;;
22357;SDS011;11346;50.150;8.150;2023-04-25T02:30:13;13.87;;;8.90;;
22357;SDS011;11346;50.150;8.150;2023-04-25T02:32:40;19.50;;;9.00;;
22357;SDS011;11346;50.150;8.150;2023-04-25T02:35:08;16.43;;;8.73;;
22357;SDS011;11346;50.150;8.150;2023-04-25T02:37:36;16.47;;;8.43;;
22357;SDS011;11346;50.150;8.150;2023-04-25T02:40:03;14.33;;;9.07;;
22357;SDS011;11346;50.150;8.150;2023-04-25T02:42:31;19.30;;;9.30;;
22357;SDS011;11346;50.150;8.150;2023-04-25T02:44:58;13.60;;;8.77;;
22357;SDS011;11346;50.150;8.150;2023-04-25T02:47:26;16.03;;;9.83;;
22357;SDS011;11346;50.150;8.150;2023-04-25T02:49:54;15.43;;;9.40;;
22357;SDS011;11346;50.150;8.150;2023-04-25T02:52:21;14.60;;;9.63;;
22357;SDS011;11346;50.150;8.150;2023-04-25T02:54:48;18.87;;;9.77;;
22357;SDS011;11346;50.150;8.150;2023-04-25T02:57:15;18.97;;;10.03;;
22357;SDS011;11346;50.150;8.150;2023-04-25T02:59:42;17.27;;;10.10;;
22357;SDS011;11346;50.150;8.150;2023-04-25T03:02:09;15.87;;;10.10;;
22357;SDS011;11346;50.150;8.150;2023-04-25T03:04:38;16.67;;;10.10;;
22357;SDS011;11346;50.150;8.150;2023-04-25T03:07:05;25.23;;;10.93;;
22357;SDS011;11346;50.150;8.150;2023-04-25T03:09:32;18.83;;;9.97;;
22357;SDS011;11346;50.150;8.150;2023-04-25T03:11:59;17.60;;;10.37;;
22357;SDS011;11346;50.150;8.150;2023-04-25T03:14:26;17.53;;;10.47;;
22357;SDS011;11346;50.150;8.150;2023-04-25T03:16:53;19.87;;;10.93;;
22357;SDS011;11346;50.150;8.150;2023-04-25T03:19:20;18.60;;;10.47;;
22357;SDS011;11346;50.150;8.150;2023-04-25T03:21:49;15.30;;;9.70;;
22357;SDS011;11346;50.150;8.150;2023-04-25T03:24:16;16.83;;;9.30;;
22357;SDS011;11346;50.150;8.150;2023-04-25T03:26:43;16.47;;;9.67;;
22357;SDS011;11346;50.150;8.150;2023-04-25T03:29:10;18.57;;;9.93;;
22357;SDS011;11346;50.150;8.150;2023-04-25T03:31:37;19.80;;;9.50;;
22357;SDS011;11346;50.150;8.150;2023-04-25T03:34:04;16.90;;;8.67;;
22357;SDS011;11346;50.150;8.150;2023-04-25T03:36:31;14.87;;;8.60;;
22357;SDS011;11346;50.150;8.150;2023-04-25T03:39:00;12.50;;;7.47;;
22357;SDS011;11346;50.150;8.150;2023-04-25T03:41:27;15.20;;;7.30;;
22357;SDS011;11346;50.150;8.150;2023-04-25T03:43:54;12.43;;;7.20;;
22357;SDS011;11346;50.150;8.150;2023-04-25T03:46:21;12.50;;;6.33;;
22357;SDS011;11346;50.150;8.150;2023-04-25T03:48:48;14.67;;;6.27;;
22357;SDS011;11346;50.150;8.150;2023-04-25T03:51:15;14.43;;;6.60;;
22357;SDS011;11346;50.150;8.150;2023-04-25T03:53:43;18.20;;;6.57;;
22357;SDS011;11346;50.150;8.150;2023-04-25T03:56:11;15.53;;;6.27;;
22357;SDS011;11346;50.150;8.150;2023-04-25T03:58:38;11.40;;;6.63;;
22357;SDS011;11346;50.150;8.150;2023-04-25T04:01:05;13.63;;;7.00;;
22357;SDS011;11346;50.150;8.150;2023-04-25T04:03:32;15.60;;;6.57;;
22357;SDS011;11346;50.150;8.150;2023-04-25T04:06:00;13.07;;;6.90;;
22357;SDS011;11346;50.150;8.150;2023-04-25T04:08:28;14.57;;;6.50;;
22357;SDS011;11346;50.150;8.150;2023-04-25T04:10:56;14.03;;;6.73;;
22357;SDS011;11346;50.150;8.150;2023-04-25T04:13:25;14.93;;;6.80;;
22357;SDS011;11346;50.150;8.150;2023-04-25T04:15:52;16.40;;;6.63;;
22357;SDS011;11346;50.150;8.150;2023-04-25T04:18:19;18.60;;;6.50;;
22357;SDS011;11346;50.150;8.150;2023-04-25T04:20:46;19.43;;;6.57;;
22357;SDS011;11346;50.150;8.150;2023-04-25T04:23:13;18.53;;;10.30;;
22357;SDS011;11346;50.150;8.150;2023-04-25T04:25:40;16.13;;;6.60;;
22357;SDS011;11346;50.150;8.150;2023-04-25T04:28:08;18.97;;;7.40;;
22357;SDS011;11346;50.150;8.150;2023-04-25T04:30:37;19.60;;;7.73;;
22357;SDS011;11346;50.150;8.150;2023-04-25T04:33:04;19.57;;;7.13;;
22357;SDS011;11346;50.150;8.150;2023-04-25T04:35:32;17.87;;;8.13;;
22357;SDS011;11346;50.150;8.150;2023-04-25T04:37:59;16.13;;;7.70;;
22357;SDS011;11346;50.150;8.150;2023-04-25T04:40:26;18.43;;;7.20;;
22357;SDS011;11346;50.150;8.150;2023-04-25T04:42:53;13.37;;;6.87;;
22357;SDS011;11346;50.150;8.150;2023-04-25T04:45:21;18.40;;;7.27;;
22357;SDS011;11346;50.150;8.150;2023-04-25T04:47:50;16.50;;;7.50;;
22357;SDS011;11346;50.150;8.150;2023-04-25T04:50:17;21.13;;;7.50;;
22357;SDS011;11346;50.150;8.150;2023-04-25T04:52:44;19.23;;;7.47;;
22357;SDS011;11346;50.150;8.150;2023-04-25T04:55:11;16.67;;;6.97;;
22357;SDS011;11346;50.150;8.150;2023-04-25T04:57:38;18.43;;;6.93;;
22357;SDS011;11346;50.150;8.150;2023-04-25T05:00:05;15.77;;;7.00;;
22357;SDS011;11346;50.150;8.150;2023-04-25T05:02:36;17.57;;;6.43;;
22357;SDS011;11346;50.150;8.150;2023-04-25T05:05:05;18.37;;;7.30;;
22357;SDS011;11346;50.150;8.150;2023-04-25T05:07:32;17.93;;;6.97;;
22357;SDS011;11346;50.150;8.150;2023-04-25T05:09:59;15.07;;;6.80;;
22357;SDS011;11346;50.150;8.150;2023-04-25T05:12:27;17.30;;;6.23;;
22357;SDS011;11346;50.150;8.150;2023-04-25T05:14:54;17.50;;;6.07;;
22357;SDS011;11346;50.150;8.150;2023-04-25T05:17:21;15.73;;;6.40;;
22357;SDS011;11346;50.150;8.150;2023-04-25T05:19:48;25.77;;;6.97;;
22357;SDS011;11346;50.150;8.150;2023-04-25T05:22:16;19.63;;;6.03;;
22357;SDS011;11346;50.150;8.150;2023-04-25T05:24:44;15.67;;;7.20;;
22357;SDS011;11346;50.150;8.150;2023-04-25T05:27:11;15.37;;;6.60;;
22357;SDS011;11346;50.150;8.150;2023-04-25T05:29:38;17.97;;;6.70;;
22357;SDS011;11346;50.150;8.150;2023-04-25T05:32:05;19.40;;;6.63;;
22357;SDS011;11346;50.150;8.150;2023-04-25T05:34:32;16.87;;;6.57;;
22357;SDS011;11346;50.150;8.150;2023-04-25T05:36:59;19.47;;;6.30;;
22357;SDS011;11346;50.150;8.150;2023-04-25T05:39:28;12.70;;;6.73;;
22357;SDS011;11346;50.150;8.150;2023-04-25T05:41:55;19.60;;;6.83;;
22357;SDS011;11346;50.150;8.150;2023-04-25T05:44:22;13.33;;;6.17;;
22357;SDS011;11346;50.150;8.150;2023-04-25T05:46:49;13.70;;;5.83;;
22357;SDS011;11346;50.150;8.150;2023-04-25T05:49:16;16.53;;;6.50;;
22357;SDS011;11346;50.150;8.150;2023-04-25T05:51:43;18.90;;;6.30;;
22357;SDS011;11346;50.150;8.150;2023-04-25T05:54:10;12.90;;;6.30;;
22357;SDS011;11346;50.150;8.150;2023-04-25T05:56:38;28.53;;;6.67;;
22357;SDS011;11346;50.150;8.150;2023-04-25T05:59:05;15.17;;;5.90;;
22357;SDS011;11346;50.150;8.150;2023-04-25T06:01:33;17.63;;;6.80;;
22357;SDS011;11346;50.150;8.150;2023-04-25T06:04:00;13.47;;;6.23;;
22357;SDS011;11346;50.150;8.150;2023-04-25T06:06:27;14.60;;;6.70;;
22357;SDS011;11346;50.150;8.150;2023-04-25T06:08:55;13.83;;;5.70;;
22357;SDS011;11346;50.150;8.150;2023-04-25T06:11:22;17.87;;;5.97;;
22357;SDS011;11346;50.150;8.150;2023-04-25T06:13:50;20.60;;;6.67;;
22357;SDS011;11346;50.150;8.150;2023-04-25T06:16:17;18.10;;;6.30;;
22357;SDS011;11346;50.150;8.150;2023-04-25T06:18:44;18.93;;;6.30;;
22357;SDS011;11346;50.150;8.150;2023-04-25T06:21:11;13.93;;;6.60;;
22357;SDS011;11346;50.150;8.150;2023-04-25T06:23:38;12.50;;;6.83;;
22357;SDS011;11346;50.150;8.150;2023-04-25T06:26:05;16.87;;;6.43;;
22357;SDS011;11346;50.150;8.150;2023-04-25T06:28:32;12.40;;;5.83;;
22357;SDS011;11346;50.150;8.150;2023-04-25T06:31:01;13.73;;;6.30;;
22357;SDS011;11346;50.150;8.150;2023-04-25T06:33:28;12.37;;;6.00;;
22357;SDS011;11346;50.150;8.150;2023-04-25T06:35:55;13.80;;;6.20;;
22357;SDS011;11346;50.150;8.150;2023-04-25T06:38:22;14.37;;;5.97;;
22357;SDS011;11346;50.150;8.150;2023-04-25T06:40:49;12.93;;;5.83;;
22357;SDS011;11346;50.150;8.150;2023-04-25T06:43:16;12.13;;;5.97;;
22357;SDS011;11346;50.150;8.150;2023-04-25T06:45:43;16.40;;;6.00;;
22357;SDS011;11346;50.150;8.150;2023-04-25T06:48:12;16.53;;;6.03;;
22357;SDS011;11346;50.150;8.150;2023-04-25T06:50:39;12.63;;;5.40;;
22357;SDS011;11346;50.150;8.150;2023-04-25T06:53:06;12.80;;;5.30;;
22357;SDS011;11346;50.150;8.150;2023-04-25T06:55:33;14.07;;;4.80;;
22357;SDS011;11346;50.150;8.150;2023-04-25T06:58:00;13.40;;;4.87;;
22357;SDS011;11346;50.150;8.150;2023-04-25T07:00:28;10.27;;;4.97;;
22357;SDS011;11346;50.150;8.150;2023-04-25T07:02:55;10.60;;;4.40;;
22357;SDS011;11346;50.150;8.150;2023-04-25T07:05:23;9.83;;;4.80;;
22357;SDS011;11346;50.150;8.150;2023-04-25T07:07:50;11.13;;;4.37;;
22357;SDS011;11346;50.150;8.150;2023-04-25T07:10:18;11.93;;;4.10;;
22357;SDS011;11346;50.150;8.150;2023-04-25T07:12:46;11.73;;;4.17;;
22357;SDS011;11346;50.150;8.150;2023-04-25T07:15:13;6.97;;;3.50;;
22357;SDS011;11346;50.150;8.150;2023-04-25T07:17:40;12.80;;;4.17;;
22357;SDS011;11346;50.150;8.150;2023-04-25T07:20:07;9.17;;;3.60;;
22357;SDS011;11346;50.150;8.150;2023-04-25T07:22:36;6.47;;;3.27;;
22357;SDS011;11346;50.150;8.150;2023-04-25T07:25:03;10.57;;;3.70;;
22357;SDS011;11346;50.150;8.150;2023-04-25T07:27:31;8.30;;;3.80;;
22357;SDS011;11346;50.150;8.150;2023-04-25T07:29:58;6.80;;;3.07;;
22357;SDS011;11346;50.150;8.150;2023-04-25T07:32:25;4.40;;;3.47;;
22357;SDS011;11346;50.150;8.150;2023-04-25T07:34:52;6.03;;;2.90;;
22357;SDS011;11346;50.150;8.150;2023-04-25T07:37:19;7.10;;;3.40;;
22357;SDS011;11346;50.150;8.150;2023-04-25T07:39:48;4.73;;;2.70;;
22357;SDS011;11346;50.150;8.150;2023-04-25T07:42:15;5.10;;;2.90;;
22357;SDS011;11346;50.150;8.150;2023-04-25T07:44:42;6.30;;;2.90;;
22357;SDS011;11346;50.150;8.150;2023-04-25T07:47:09;7.73;;;3.20;;
22357;SDS011;11346;50.150;8.150;2023-04-25T07:49:36;9.53;;;3.20;;
22357;SDS011;11346;50.150;8.150;2023-04-25T07:52:04;7.90;;;3.10;;
22357;SDS011;11346;50.150;8.150;2023-04-25T07:54:32;7.63;;;2.83;;
22357;SDS011;11346;50.150;8.150;2023-04-25T07:57:00;4.67;;;2.40;;
22357;SDS011;11346;50.150;8.150;2023-04-25T07:59:28;6.17;;;3.37;;
22357;SDS011;11346;50.150;8.150;2023-04-25T08:01:55;7.00;;;2.83;;
22357;SDS011;11346;50.150;8.150;2023-04-25T08:04:23;7.60;;;2.80;;
22357;SDS011;11346;50.150;8.150;2023-04-25T08:06:50;5.80;;;2.93;;
22357;SDS011;11346;50.150;8.150;2023-04-25T08:09:18;7.40;;;3.00;;
22357;SDS011;11346;50.150;8.150;2023-04-25T08:11:45;8.90;;;3.87;;
22357;SDS011;11346;50.150;8.150;2023-04-25T08:14:14;6.27;;;3.67;;
22357;SDS011;11346;50.150;8.150;2023-04-25T08:16:41;13.07;;;3.50;;
22357;SDS011;11346;50.150;8.150;2023-04-25T08:19:08;7.73;;;4.13;;
22357;SDS011;11346;50.150;8.150;2023-04-25T08:21:36;7.83;;;4.07;;
22357;SDS011;11346;50.150;8.150;2023-04-25T08:24:03;11.07;;;5.10;;
22357;SDS011;11346;50.150;8.150;2023-04-25T08:26:30;13.37;;;4.53;;
22357;SDS011;11346;50.150;8.150;2023-04-25T08:28:57;10.00;;;4.80;;
22357;SDS011;11346;50.150;8.150;2023-04-25T08:31:26;9.80;;;5.00;;
22357;SDS011;11346;50.150;8.150;2023-04-25T08:33:53;11.50;;;4.60;;
22357;SDS011;11346;50.150;8.150;2023-04-25T08:36:20;8.83;;;4.57;;
22357;SDS011;11346;50.150;8.150;2023-04-25T08:38:47;9.20;;;4.80;;
22357;SDS011;11346;50.150;8.150;2023-04-25T08:41:14;11.63;;;4.97;;
22357;SDS011;11346;50.150;8.150;2023-04-25T08:43:42;9.97;;;4.90;;
22357;SDS011;11346;50.150;8.150;2023-04-25T08:46:09;6.67;;;4.43;;
22357;SDS011;11346;50.150;8.150;2023-04-25T08:48:40;7.20;;;4.33;;
22357;SDS011;11346;50.150;8.150;2023-04-25T08:51:07;8.70;;;4.60;;
22357;SDS011;11346;50.150;8.150;2023-04-25T08:53:34;7.50;;;4.70;;
22357;SDS011;11346;50.150;8.150;2023-04-25T08:56:01;7.30;;;4.83;;
22357;SDS011;11346;50.150;8.150;2023-04-25T08:58:29;7.50;;;4.60;;
22357;SDS011;11346;50.150;8.150;2023-04-25T09:00:56;11.33;;;5.10;;
22357;SDS011;11346;50.150;8.150;2023-04-25T09:03:23;7.00;;;4.67;;
22357;SDS011;11346;50.150;8.150;2023-04-25T09:05:52;9.27;;;4.90;;
22357;SDS011;11346;50.150;8.150;2023-04-25T09:08:19;11.17;;;5.03;;
22357;SDS011;11346;50.150;8.150;2023-04-25T09:10:46;9.43;;;5.27;;
22357;SDS011;11346;50.150;8.150;2023-04-25T09:13:13;10.77;;;5.20;;
22357;SDS011;11346;50.150;8.150;2023-04-25T09:15:48;10.53;;;5.07;;
22357;SDS011;11346;50.150;8.150;2023-04-25T09:18:22;8.07;;;5.27;;
22357;SDS011;11346;50.150;8.150;2023-04-25T09:20:51;9.27;;;5.10;;
22357;SDS011;11346;50.150;8.150;2023-04-25T09:23:19;8.13;;;5.33;;
22357;SDS011;11346;50.150;8.150;2023-04-25T09:25:46;10.53;;;5.43;;
22357;SDS011;11346;50.150;8.150;2023-04-25T09:28:14;12.10;;;6.30;;
22357;SDS011;11346;50.150;8.150;2023-04-25T09:30:41;9.77;;;5.93;;
22357;SDS011;11346;50.150;8.150;2023-04-25T09:33:08;15.10;;;6.10;;
22357;SDS011;11346;50.150;8.150;2023-04-25T09:35:46;13.80;;;6.03;;
22357;SDS011;11346;50.150;8.150;2023-04-25T09:38:23;9.00;;;5.20;;
22357;SDS011;11346;50.150;8.150;2023-04-25T09:40:51;11.37;;;6.07;;
22357;SDS011;11346;50.150;8.150;2023-04-25T09:43:18;14.10;;;5.97;;
22357;SDS011;11346;50.150;8.150;2023-04-25T09:45:46;15.83;;;6.03;;
22357;SDS011;11346;50.150;8.150;2023-04-25T09:48:17;10.23;;;4.40;;
22357;SDS011;11346;50.150;8.150;2023-04-25T09:50:45;15.30;;;5.60;;
22357;SDS011;11346;50.150;8.150;2023-04-25T09:53:12;9.37;;;4.60;;
22357;SDS011;11346;50.150;8.150;2023-04-25T09:55:41;8.53;;;4.47;;
22357;SDS011;11346;50.150;8.150;2023-04-25T09:58:09;8.23;;;4.17;;
22357;SDS011;11346;50.150;8.150;2023-04-25T10:00:37;9.70;;;4.40;;
22357;SDS011;11346;50.150;8.150;2023-04-25T10:03:05;12.73;;;4.50;;
22357;SDS011;11346;50.150;8.150;2023-04-25T10:05:32;8.73;;;4.03;;
22357;SDS011;11346;50.150;8.150;2023-04-25T10:08:02;10.50;;;4.40;;
22357;SDS011;11346;50.150;8.150;2023-04-25T10:10:29;6.57;;;3.90;;
22357;SDS011;11346;50.150;8.150;2023-04-25T10:13:02;9.13;;;4.20;;
22357;SDS011;11346;50.150;8.150;2023-04-25T10:15:30;10.00;;;4.43;;
22357;SDS011;11346;50.150;8.150;2023-04-25T10:17:57;10.33;;;4.20;;
22357;SDS011;11346;50.150;8.150;2023-04-25T10:20:25;8.70;;;3.93;;
22357;SDS011;11346;50.150;8.150;2023-04-25T10:22:53;7.97;;;4.30;;
22357;SDS011;11346;50.150;8.150;2023-04-25T10:25:21;9.33;;;3.67;;
22357;SDS011;11346;50.150;8.150;2023-04-25T10:27:50;13.03;;;4.43;;
22357;SDS011;11346;50.150;8.150;2023-04-25T10:30:19;8.63;;;3.50;;
22357;SDS011;11346;50.150;8.150;2023-04-25T10:32:46;6.23;;;3.80;;
22357;SDS011;11346;50.150;8.150;2023-04-25T10:35:16;7.27;;;3.93;;
22357;SDS011;11346;50.150;8.150;2023-04-25T10:40:29;9.93;;;4.03;;
22357;SDS011;11346;50.150;8.150;2023-04-25T10:42:57;8.37;;;3.87;;
22357;SDS011;11346;50.150;8.150;2023-04-25T10:45:54;12.33;;;4.10;;
22357;SDS011;11346;50.150;8.150;2023-04-25T10:48:27;10.87;;;4.57;;
22357;SDS011;11346;50.150;8.150;2023-04-25T10:51:06;12.13;;;4.40;;
22357;SDS011;11346;50.150;8.150;2023-04-25T10:53:33;14.17;;;4.30;;
22357;SDS011;11346;50.150;8.150;2023-04-25T10:56:01;8.03;;;3.70;;
22357;SDS011;11346;50.150;8.150;2023-04-25T10:58:35;11.77;;;3.67;;
22357;SDS011;11346;50.150;8.150;2023-04-25T11:01:04;10.10;;;3.60;;
22357;SDS011;11346;50.150;8.150;2023-04-25T11:03:31;9.23;;;3.43;;
22357;SDS011;11346;50.150;8.150;2023-04-25T11:05:58;9.77;;;3.47;;
22357;SDS011;11346;50.150;8.150;2023-04-25T11:08:29;9.77;;;3.00;;
22357;SDS011;11346;50.150;8.150;2023-04-25T11:10:59;8.83;;;3.77;;
22357;SDS011;11346;50.150;8.150;2023-04-25T11:13:28;7.33;;;3.33;;
22357;SDS011;11346;50.150;8.150;2023-04-25T11:15:56;9.47;;;3.90;;
22357;SDS011;11346;50.150;8.150;2023-04-25T11:18:27;14.10;;;4.00;;
22357;SDS011;11346;50.150;8.150;2023-04-25T11:20:54;8.80;;;3.60;;
22357;SDS011;11346;50.150;8.150;2023-04-25T11:23:21;12.10;;;4.57;;
22357;SDS011;11346;50.150;8.150;2023-04-25T11:25:48;9.10;;;3.93;;
22357;SDS011;11346;50.150;8.150;2023-04-25T11:28:20;10.60;;;3.77;;
22357;SDS011;11346;50.150;8.150;2023-04-25T11:30:48;11.47;;;3.87;;
22357;SDS011;11346;50.150;8.150;2023-04-25T11:33:15;9.37;;;3.57;;
22357;SDS011;11346;50.150;8.150;2023-04-25T11:35:47;11.80;;;3.53;;
22357;SDS011;11346;50.150;8.150;2023-04-25T11:38:14;8.87;;;3.63;;
22357;SDS011;11346;50.150;8.150;2023-04-25T11:40:42;9.60;;;3.60;;
22357;SDS011;11346;50.150;8.150;2023-04-25T11:43:09;7.50;;;3.40;;
22357;SDS011;11346;50.150;8.150;2023-04-25T11:45:36;13.37;;;4.23;;
22357;SDS011;11346;50.150;8.150;2023-04-25T11:48:03;9.03;;;3.73;;
22357;SDS011;11346;50.150;8.150;2023-04-25T11:50:30;8.97;;;3.80;;
22357;SDS011;11346;50.150;8.150;2023-04-25T11:52:59;13.90;;;3.63;;
22357;SDS011;11346;50.150;8.150;2023-04-25T11:55:26;6.07;;;3.43;;
22357;SDS011;11346;50.150;8.150;2023-04-25T11:57:53;8.10;;;3.67;;
22357;SDS011;11346;50.150;8.150;2023-04-25T12:00:21;7.80;;;3.20;;
22357;SDS011;11346;50.150;8.150;2023-04-25T12:02:50;7.33;;;3.30;;
22357;SDS011;11346;50.150;8.150;2023-04-25T12:05:18;7.33;;;3.33;;
22357;SDS011;11346;50.150;8.150;2023-04-25T12:07:45;8.33;;;3.20;;
22357;SDS011;11346;50.150;8.150;2023-04-25T12:10:14;9.70;;;3.20;;
22357;SDS011;11346;50.150;8.150;2023-04-25T12:12:42;9.93;;;3.67;;
22357;SDS011;11346;50.150;8.150;2023-04-25T12:15:10;8.53;;;3.00;;
22357;SDS011;11346;50.150;8.150;2023-04-25T12:17:38;6.73;;;3.20;;
22357;SDS011;11346;50.150;8.150;2023-04-25T12:20:06;7.17;;;3.30;;
22357;SDS011;11346;50.150;8.150;2023-04-25T12:22:33;6.30;;;3.10;;
22357;SDS011;11346;50.150;8.150;2023-04-25T12:25:01;7.80;;;3.33;;
22357;SDS011;11346;50.150;8.150;2023-04-25T12:27:30;7.53;;;3.17;;
22357;SDS011;11346;50.150;8.150;2023-04-25T12:29:58;11.60;;;3.60;;
22357;SDS011;11346;50.150;8.150;2023-04-25T12:32:26;7.87;;;3.33;;
22357;SDS011;11346;50.150;8.150;2023-04-25T12:34:53;12.07;;;3.70;;
22357;SDS011;11346;50.150;8.150;2023-04-25T12:37:20;9.10;;;3.57;;
22357;SDS011;11346;50.150;8.150;2023-04-25T12:39:47;9.63;;;3.83;;
22357;SDS011;11346;50.150;8.150;2023-04-25T12:42:15;8.00;;;3.47;;
22357;SDS011;11346;50.150;8.150;2023-04-25T12:44:44;8.47;;;3.20;;
22357;SDS011;11346;50.150;8.150;2023-04-25T12:47:11;6.27;;;3.10;;
22357;SDS011;11346;50.150;8.150;2023-04-25T12:49:38;7.23;;;3.40;;
22357;SDS011;11346;50.150;8.150;2023-04-25T12:52:05;8.00;;;3.40;;
22357;SDS011;11346;50.150;8.150;2023-04-25T12:54:32;7.53;;;3.07;;
22357;SDS011;11346;50.150;8.150;2023-04-25T12:57:01;8.60;;;3.30;;
22357;SDS011;11346;50.150;8.150;2023-04-25T12:59:28;12.93;;;3.27;;
22357;SDS011;11346;50.150;8.150;2023-04-25T13:01:56;6.97;;;3.60;;
22357;SDS011;11346;50.150;8.150;2023-04-25T13:04:23;10.87;;;3.63;;
22357;SDS011;11346;50.150;8.150;2023-04-25T13:06:50;8.20;;;3.40;;
22357;SDS011;11346;50.150;8.150;2023-04-25T13:09:17;8.07;;;3.57;;
22357;SDS011;11346;50.150;8.150;2023-04-25T13:11:45;7.73;;;3.40;;
22357;SDS011;11346;50.150;8.150;2023-04-25T13:14:12;8.83;;;3.57;;
22357;SDS011;11346;50.150;8.150;2023-04-25T13:16:40;7.70;;;3.87;;
22357;SDS011;11346;50.150;8.150;2023-04-25T13:19:08;10.43;;;4.33;;
22357;SDS011;11346;50.150;8.150;2023-04-25T13:21:36;8.50;;;3.53;;
22357;SDS011;11346;50.150;8.150;2023-04-25T13:24:03;11.80;;;3.80;;
22357;SDS011;11346;50.150;8.150;2023-04-25T13:26:30;10.83;;;4.17;;
22357;SDS011;11346;50.150;8.150;2023-04-25T13:28:57;4.83;;;3.13;;
22357;SDS011;11346;50.150;8.150;2023-04-25T13:31:25;9.80;;;3.10;;
22357;SDS011;11346;50.150;8.150;2023-04-25T13:33:52;4.97;;;3.20;;
22357;SDS011;11346;50.150;8.150;2023-04-25T13:36:20;7.13;;;2.67;;
22357;SDS011;11346;50.150;8.150;2023-04-25T13:38:47;7.83;;;3.07;;
22357;SDS011;11346;50.150;8.150;2023-04-25T13:41:14;8.00;;;3.10;;
22357;SDS011;11346;50.150;8.150;2023-04-25T13:43:43;6.80;;;3.00;;
22357;SDS011;11346;50.150;8.150;2023-04-25T13:46:11;6.47;;;2.97;;
22357;SDS011;11346;50.150;8.150;2023-04-25T13:48:40;5.67;;;2.93;;
22357;SDS011;11346;50.150;8.150;2023-04-25T13:51:11;8.60;;;2.90;;
22357;SDS011;11346;50.150;8.150;2023-04-25T13:53:39;10.33;;;3.40;;
22357;SDS011;11346;50.150;8.150;2023-04-25T13:56:06;6.33;;;3.27;;
22357;SDS011;11346;50.150;8.150;2023-04-25T13:58:33;8.93;;;3.30;;
22357;SDS011;11346;50.150;8.150;2023-04-25T14:01:01;8.37;;;2.90;;
22357;SDS011;11346;50.150;8.150;2023-04-25T14:03:28;6.80;;;2.73;;
22357;SDS011;11346;50.150;8.150;2023-04-25T14:05:56;6.97;;;3.00;;
22357;SDS011;11346;50.150;8.150;2023-04-25T14:08:23;12.20;;;3.40;;
22357;SDS011;11346;50.150;8.150;2023-04-25T14:10:52;6.93;;;3.27;;
22357;SDS011;11346;50.150;8.150;2023-04-25T14:13:19;10.77;;;3.00;;
22357;SDS011;11346;50.150;8.150;2023-04-25T14:15:46;6.50;;;3.00;;
22357;SDS011;11346;50.150;8.150;2023-04-25T14:18:13;9.37;;;2.90;;
22357;SDS011;11346;50.150;8.150;2023-04-25T14:20:40;5.30;;;2.97;;
22357;SDS011;11346;50.150;8.150;2023-04-25T14:23:07;9.90;;;3.30;;
22357;SDS011;11346;50.150;8.150;2023-04-25T14:25:34;7.63;;;3.23;;
22357;SDS011;11346;50.150;8.150;2023-04-25T14:28:04;8.80;;;2.70;;
22357;SDS011;11346;50.150;8.150;2023-04-25T14:30:31;8.87;;;3.03;;
22357;SDS011;11346;50.150;8.150;2023-04-25T14:32:58;6.03;;;3.10;;
22357;SDS011;11346;50.150;8.150;2023-04-25T14:35:26;12.17;;;3.50;;
22357;SDS011;11346;50.150;8.150;2023-04-25T14:37:53;8.40;;;3.00;;
22357;SDS011;11346;50.150;8.150;2023-04-25T14:40:20;6.20;;;2.93;;
22357;SDS011;11346;50.150;8.150;2023-04-25T14:42:48;7.80;;;2.90;;
22357;SDS011;11346;50.150;8.150;2023-04-25T14:45:16;9.07;;;2.80;;